createdAt,value
2022-08-02T00:00:46.168Z,21.28
2022-08-02T00:03:30.092Z,21.55
2022-08-02T00:06:14.722Z,21.61
2022-08-02T00:08:58.804Z,21.65
2022-08-02T00:11:44.155Z,21.53
2022-08-02T00:14:28.084Z,21.66
2022-08-02T00:17:12.060Z,21.50
2022-08-02T00:19:55.890Z,21.66
2022-08-02T00:22:39.812Z,21.49
2022-08-02T00:25:23.922Z,21.61
2022-08-02T00:28:10.952Z,21.64
2022-08-02T00:30:54.954Z,21.60
2022-08-02T00:34:26.872Z,21.68
2022-08-02T00:36:42.750Z,21.76
2022-08-02T00:39:35.282Z,21.82
2022-08-02T00:42:19.734Z,21.87
2022-08-02T00:45:05.360Z,21.63
2022-08-02T00:47:49.236Z,21.71
2022-08-02T00:50:33.613Z,21.54
2022-08-02T00:53:17.394Z,21.70
2022-08-02T00:56:01.258Z,21.51
2022-08-02T00:58:45.213Z,21.59
2022-08-02T01:01:55.699Z,21.67
2022-08-02T01:04:41.954Z,21.47
2022-08-02T01:07:25.844Z,21.47
2022-08-02T01:10:10.440Z,21.22
2022-08-02T01:12:54.377Z,21.37
2022-08-02T01:15:44.861Z,21.47
2022-08-02T01:18:35.699Z,21.32
2022-08-02T01:21:42.373Z,21.26
2022-08-02T01:24:38.862Z,21.38
2022-08-02T01:27:34.944Z,21.20
2022-08-02T01:30:20.874Z,21.34
2022-08-02T01:33:08.433Z,21.15
2022-08-02T01:35:57.295Z,21.02
2022-08-02T01:38:45.191Z,21.05
2022-08-02T01:41:30.942Z,20.71
2022-08-02T01:44:17.012Z,20.89
2022-08-02T01:47:18.111Z,20.64
2022-08-02T01:50:03.971Z,20.69
2022-08-02T01:52:53.649Z,20.82
2022-08-02T01:55:57.025Z,21.08
2022-08-02T01:58:44.675Z,20.99
2022-08-02T02:01:29.325Z,20.90
2022-08-02T02:04:17.098Z,20.58
2022-08-02T02:07:03.098Z,20.84
2022-08-02T02:09:50.805Z,20.80
2022-08-02T02:12:38.221Z,20.96
2022-08-02T02:15:45.760Z,20.74
2022-08-02T02:18:31.224Z,20.74
2022-08-02T02:21:16.889Z,20.81
2022-08-02T02:24:01.175Z,20.88
2022-08-02T02:26:52.315Z,20.38
2022-08-02T02:29:38.514Z,20.28
2022-08-02T02:32:24.808Z,20.45
2022-08-02T02:35:12.146Z,20.65
2022-08-02T02:38:00.784Z,20.56
2022-08-02T02:40:47.518Z,20.31
2022-08-02T02:43:33.728Z,20.35
2022-08-02T02:46:21.656Z,20.46
2022-08-02T02:49:05.732Z,20.43
2022-08-02T02:51:50.816Z,20.10
2022-08-02T02:54:37.669Z,20.20
2022-08-02T02:57:23.196Z,20.38
2022-08-02T03:00:09.924Z,20.52
2022-08-02T03:02:53.829Z,20.33
2022-08-02T03:05:38.053Z,20.55
2022-08-02T03:08:22.025Z,20.51
2022-08-02T03:11:09.051Z,20.48
2022-08-02T03:13:53.573Z,20.50
2022-08-02T03:16:44.860Z,20.51
2022-08-02T03:19:33.325Z,20.57
2022-08-02T03:22:17.388Z,20.47
2022-08-02T03:25:01.299Z,20.58
2022-08-02T03:27:46.866Z,20.31
2022-08-02T03:30:30.748Z,20.45
2022-08-02T03:33:14.688Z,20.61
2022-08-02T03:36:02.571Z,20.60
2022-08-02T03:38:47.784Z,20.70
2022-08-02T03:41:32.441Z,20.48
2022-08-02T03:44:18.943Z,20.53
2022-08-02T03:47:03.896Z,20.36
2022-08-02T03:49:48.510Z,20.58
2022-08-02T03:52:34.035Z,20.80
2022-08-02T03:55:17.985Z,20.55
2022-08-02T03:58:02.570Z,20.77
2022-08-02T04:00:48.491Z,20.79
2022-08-02T04:03:34.826Z,20.90
2022-08-02T04:06:18.637Z,20.92
2022-08-02T04:09:11.743Z,20.91
2022-08-02T04:11:55.671Z,21.00
2022-08-02T04:14:39.844Z,21.19
2022-08-02T04:17:26.401Z,20.98
2022-08-02T04:20:14.292Z,20.71
2022-08-02T04:23:02.779Z,21.26
2022-08-02T04:25:47.131Z,21.41
2022-08-02T04:28:37.067Z,21.12
2022-08-02T04:31:22.222Z,21.10
2022-08-02T04:34:07.882Z,21.33
2022-08-02T04:36:52.030Z,21.07
2022-08-02T04:39:36.051Z,21.23
2022-08-02T04:42:23.993Z,21.16
2022-08-02T04:45:10.166Z,21.26
2022-08-02T04:48:07.410Z,21.32
2022-08-02T04:50:53.298Z,21.47
2022-08-02T04:53:37.156Z,21.33
2022-08-02T04:56:21.154Z,21.20
2022-08-02T04:59:05.078Z,21.33
2022-08-02T05:01:48.850Z,21.81
2022-08-02T05:04:32.702Z,21.58
2022-08-02T05:07:18.008Z,21.64
2022-08-02T05:10:02.319Z,21.63
2022-08-02T05:12:47.040Z,21.91
2022-08-02T05:15:33.423Z,21.93
2022-08-02T05:18:17.432Z,22.15
2022-08-02T05:21:01.443Z,22.06
2022-08-02T05:23:46.971Z,22.08
2022-08-02T05:26:31.086Z,22.35
2022-08-02T05:29:14.928Z,22.20
2022-08-02T05:31:58.726Z,22.43
2022-08-02T05:34:42.620Z,22.14
2022-08-02T05:37:31.793Z,22.45
2022-08-02T05:40:17.620Z,22.08
2022-08-02T05:43:14.453Z,22.58
2022-08-02T05:45:59.148Z,22.65
2022-08-02T05:48:44.972Z,22.99
2022-08-02T05:51:36.021Z,22.90
2022-08-02T05:54:21.612Z,22.77
2022-08-02T05:57:14.140Z,22.99
2022-08-02T06:00:07.754Z,22.91
2022-08-02T06:03:06.026Z,22.70
2022-08-02T06:05:58.874Z,22.52
2022-08-02T06:08:47.805Z,22.88
2022-08-02T06:11:37.818Z,22.99
2022-08-02T06:14:23.265Z,23.02
2022-08-02T06:17:15.452Z,23.39
2022-08-02T06:20:01.437Z,23.51
2022-08-02T06:22:48.345Z,23.54
2022-08-02T06:25:50.321Z,23.69
2022-08-02T06:28:38.943Z,24.21
2022-08-02T06:31:24.328Z,24.58
2022-08-02T06:34:08.050Z,24.07
2022-08-02T06:36:59.878Z,23.77
2022-08-02T06:39:46.876Z,24.31
2022-08-02T06:42:41.731Z,24.46
2022-08-02T06:45:25.686Z,24.65
2022-08-02T06:48:11.772Z,24.69
2022-08-02T06:50:55.647Z,24.73
2022-08-02T06:53:39.696Z,24.65
2022-08-02T06:56:23.810Z,24.57
2022-08-02T06:59:07.738Z,24.86
2022-08-02T07:01:52.270Z,24.91
2022-08-02T07:04:37.530Z,24.78
2022-08-02T07:07:21.404Z,25.04
2022-08-02T07:10:05.758Z,25.34
2022-08-02T07:12:49.641Z,25.54
2022-08-02T07:15:33.652Z,25.70
2022-08-02T07:18:17.509Z,25.25
2022-08-02T07:21:05.330Z,25.03
2022-08-02T07:23:49.284Z,25.29
2022-08-02T07:26:41.326Z,25.43
2022-08-02T07:29:33.662Z,25.55
2022-08-02T07:32:31.983Z,25.34
2022-08-02T07:35:16.352Z,25.14
2022-08-02T07:38:05.274Z,25.49
2022-08-02T07:40:49.830Z,25.57
2022-08-02T07:43:33.802Z,25.79
2022-08-02T07:46:17.660Z,26.17
2022-08-02T07:49:01.550Z,25.70
2022-08-02T07:51:45.854Z,26.09
2022-08-02T07:54:31.791Z,25.73
2022-08-02T07:57:15.677Z,25.90
2022-08-02T07:59:59.641Z,25.97
2022-08-02T08:02:43.482Z,26.56
2022-08-02T08:05:27.243Z,26.38
2022-08-02T08:08:17.194Z,26.07
2022-08-02T08:11:03.018Z,26.59
2022-08-02T08:13:46.853Z,26.48
2022-08-02T08:16:30.658Z,26.66
2022-08-02T08:19:14.557Z,26.42
2022-08-02T08:22:00.141Z,26.46
2022-08-02T08:24:44.045Z,26.32
2022-08-02T08:27:29.287Z,26.62
2022-08-02T08:30:14.260Z,26.62
2022-08-02T08:32:58.136Z,26.51
2022-08-02T08:35:42.084Z,26.51
2022-08-02T08:38:26.167Z,26.96
2022-08-02T08:41:12.445Z,26.46
2022-08-02T08:43:59.373Z,26.81
2022-08-02T08:46:44.696Z,27.29
2022-08-02T08:49:33.505Z,27.22
2022-08-02T08:52:20.142Z,27.43
2022-08-02T08:55:06.060Z,27.48
2022-08-02T08:57:50.302Z,26.85
2022-08-02T09:00:36.974Z,26.64
2022-08-02T09:03:20.908Z,27.20
2022-08-02T09:06:05.148Z,27.23
2022-08-02T09:08:49.033Z,27.10
2022-08-02T09:11:32.921Z,27.65
2022-08-02T09:14:28.463Z,27.89
2022-08-02T09:17:13.997Z,27.21
2022-08-02T09:20:09.291Z,27.79
2022-08-02T09:23:07.622Z,27.19
2022-08-02T09:26:00.890Z,27.15
2022-08-02T09:28:47.824Z,27.49
2022-08-02T09:31:36.060Z,27.66
2022-08-02T09:34:22.441Z,27.42
2022-08-02T09:37:06.320Z,27.85
2022-08-02T09:39:50.143Z,27.70
2022-08-02T09:43:00.070Z,27.62
2022-08-02T09:45:44.189Z,28.04
2022-08-02T09:48:28.118Z,28.27
2022-08-02T09:51:13.425Z,27.90
2022-08-02T09:54:08.618Z,28.29
2022-08-02T09:56:54.366Z,27.96
2022-08-02T09:59:38.239Z,28.23
2022-08-02T10:02:22.866Z,28.98
2022-08-02T10:05:07.678Z,28.95
2022-08-02T10:07:53.119Z,28.74
2022-08-02T10:10:36.986Z,28.60
2022-08-02T10:13:21.833Z,28.90
2022-08-02T10:16:07.394Z,28.84
2022-08-02T10:18:52.285Z,28.73
2022-08-02T10:21:46.300Z,28.66
2022-08-02T10:24:33.811Z,28.54
2022-08-02T10:27:20.401Z,28.41
2022-08-02T10:30:04.654Z,29.14
2022-08-02T10:32:50.435Z,29.51
2022-08-02T10:35:37.083Z,29.64
2022-08-02T10:38:21.458Z,29.00
2022-08-02T10:41:08.140Z,29.02
2022-08-02T10:43:52.049Z,29.47
2022-08-02T10:46:38.057Z,28.64
2022-08-02T10:49:39.054Z,28.06
2022-08-02T10:52:24.577Z,28.51
2022-08-02T10:55:14.866Z,29.00
2022-08-02T10:58:20.303Z,29.04
2022-08-02T11:01:07.197Z,29.14
2022-08-02T11:03:51.151Z,29.07
2022-08-02T11:06:35.126Z,29.53
2022-08-02T11:09:31.937Z,30.06
2022-08-02T11:12:19.892Z,29.47
2022-08-02T11:15:07.345Z,29.21
2022-08-02T11:17:54.399Z,29.05
2022-08-02T11:20:38.296Z,29.86
2022-08-02T11:23:44.505Z,30.11
2022-08-02T11:26:48.140Z,29.26
2022-08-02T11:29:38.349Z,29.17
2022-08-02T11:32:31.079Z,29.51
2022-08-02T11:35:16.560Z,29.26
2022-08-02T11:38:14.130Z,29.88
2022-08-02T11:41:06.077Z,30.00
2022-08-02T11:43:56.206Z,30.11
2022-08-02T11:46:40.081Z,30.12
2022-08-02T11:49:25.827Z,29.50
2022-08-02T11:52:11.484Z,29.30
2022-08-02T11:54:55.638Z,28.87
2022-08-02T11:58:01.750Z,29.00
2022-08-02T12:00:47.125Z,29.89
2022-08-02T12:03:36.068Z,29.80
2022-08-02T12:06:21.370Z,29.62
2022-08-02T12:09:08.002Z,29.47
2022-08-02T12:12:04.757Z,29.75
2022-08-02T12:14:48.706Z,29.86
2022-08-02T12:17:50.128Z,29.46
2022-08-02T12:20:37.771Z,29.67
2022-08-02T12:23:23.155Z,30.05
2022-08-02T12:26:15.903Z,29.53
2022-08-02T12:29:01.643Z,30.14
2022-08-02T12:31:56.396Z,29.90
2022-08-02T12:34:41.718Z,29.96
2022-08-02T12:37:27.382Z,29.75
2022-08-02T12:40:25.999Z,29.69
2022-08-02T12:43:19.026Z,29.77
2022-08-02T12:46:03.171Z,29.72
2022-08-02T12:49:08.411Z,30.15
2022-08-02T12:51:57.000Z,30.19
2022-08-02T12:54:44.554Z,30.65
2022-08-02T12:57:29.792Z,29.86
2022-08-02T13:00:24.957Z,30.25
2022-08-02T13:04:07.545Z,30.56
2022-08-02T13:06:41.858Z,29.95
2022-08-02T13:09:18.806Z,29.55
2022-08-02T13:12:02.929Z,29.23
2022-08-02T13:14:48.343Z,29.65
2022-08-02T13:17:32.165Z,29.46
2022-08-02T13:20:17.110Z,29.83
2022-08-02T13:23:03.709Z,29.68
2022-08-02T13:25:48.206Z,30.29
2022-08-02T13:28:36.846Z,30.51
2022-08-02T13:31:36.286Z,30.80
2022-08-02T13:34:20.852Z,31.07
2022-08-02T13:37:05.277Z,30.26
2022-08-02T13:40:11.813Z,30.77
2022-08-02T13:42:54.696Z,30.75
2022-08-02T13:45:38.459Z,30.88
2022-08-02T13:48:23.626Z,31.20
2022-08-02T13:51:12.002Z,31.27
2022-08-02T13:53:58.922Z,31.09
2022-08-02T13:56:42.848Z,29.83
2022-08-02T13:59:55.955Z,29.87
2022-08-02T14:02:30.976Z,30.54
2022-08-02T14:05:17.692Z,30.58
2022-08-02T14:08:22.982Z,31.67
2022-08-02T14:11:06.897Z,31.61
2022-08-02T14:13:50.688Z,30.95
2022-08-02T14:16:35.052Z,30.17
2022-08-02T14:19:21.051Z,30.06
2022-08-02T14:22:10.765Z,30.36
2022-08-02T14:24:55.378Z,30.23
2022-08-02T14:27:39.616Z,30.78
2022-08-02T14:30:23.968Z,31.43
2022-08-02T14:33:07.829Z,31.47
2022-08-02T14:35:51.773Z,31.42
2022-08-02T14:38:40.775Z,30.46
2022-08-02T14:41:24.871Z,30.54
2022-08-02T14:44:08.826Z,30.15
2022-08-02T14:46:53.159Z,30.49
2022-08-02T14:49:41.188Z,29.76
2022-08-02T14:52:26.180Z,29.84
2022-08-02T14:55:16.778Z,29.67
2022-08-02T14:58:01.104Z,29.53
2022-08-02T15:00:44.998Z,30.16
2022-08-02T15:03:29.899Z,30.50
2022-08-02T15:06:13.885Z,30.04
2022-08-02T15:08:57.970Z,30.89
2022-08-02T15:11:48.192Z,30.80
2022-08-02T15:14:32.694Z,30.80
2022-08-02T15:17:16.640Z,30.52
2022-08-02T15:20:24.445Z,30.94
2022-08-02T15:23:05.407Z,30.19
2022-08-02T15:25:49.358Z,30.02
2022-08-02T15:28:34.602Z,30.57
2022-08-02T15:31:22.374Z,30.84
2022-08-02T15:34:18.870Z,31.00
2022-08-02T15:37:02.880Z,30.91
2022-08-02T15:39:47.003Z,30.52
2022-08-02T15:42:31.068Z,30.70
2022-08-02T15:45:16.590Z,30.66
2022-08-02T15:48:00.423Z,30.63
2022-08-02T15:50:44.715Z,30.89
2022-08-02T15:53:28.595Z,30.56
2022-08-02T15:56:13.154Z,30.66
2022-08-02T15:58:58.937Z,30.46
2022-08-02T16:01:47.578Z,30.92
2022-08-02T16:04:33.046Z,30.84
2022-08-02T16:07:16.977Z,30.71
2022-08-02T16:10:00.835Z,30.73
2022-08-02T16:12:45.016Z,30.85
2022-08-02T16:15:28.922Z,30.54
2022-08-02T16:18:14.206Z,30.41
2022-08-02T16:20:59.459Z,30.73
2022-08-02T16:23:58.875Z,30.83
2022-08-02T16:26:46.617Z,31.30
2022-08-02T16:29:33.562Z,31.17
2022-08-02T16:32:17.729Z,30.99
2022-08-02T16:35:08.831Z,30.32
2022-08-02T16:37:53.156Z,30.40
2022-08-02T16:40:37.183Z,30.61
2022-08-02T16:43:21.173Z,30.68
2022-08-02T16:46:05.166Z,30.16
2022-08-02T16:48:53.817Z,30.07
2022-08-02T16:51:39.457Z,30.00
2022-08-02T16:54:23.345Z,29.97
2022-08-02T16:57:10.774Z,29.85
2022-08-02T16:59:58.662Z,29.17
2022-08-02T17:02:42.707Z,29.14
2022-08-02T17:05:35.900Z,28.78
2022-08-02T17:08:23.019Z,27.77
2022-08-02T17:11:17.526Z,27.19
2022-08-02T17:14:01.564Z,27.49
2022-08-02T17:16:45.436Z,27.50
2022-08-02T17:19:35.397Z,26.73
2022-08-02T17:22:22.155Z,26.94
2022-08-02T17:25:13.608Z,26.86
2022-08-02T17:27:58.844Z,26.74
2022-08-02T17:30:42.679Z,26.74
2022-08-02T17:33:29.078Z,27.11
2022-08-02T17:36:15.495Z,27.02
2022-08-02T17:38:59.895Z,27.07
2022-08-02T17:41:50.599Z,27.11
2022-08-02T17:44:37.810Z,27.16
2022-08-02T17:47:22.873Z,26.90
2022-08-02T17:50:15.189Z,26.81
2022-08-02T17:52:59.609Z,26.81
2022-08-02T17:55:44.005Z,27.02
2022-08-02T17:58:36.644Z,26.97
2022-08-02T18:01:37.822Z,27.18
2022-08-02T18:04:27.828Z,26.79
2022-08-02T18:07:12.157Z,26.56
2022-08-02T18:10:01.226Z,26.28
2022-08-02T18:12:47.260Z,26.54
2022-08-02T18:15:34.165Z,26.42
2022-08-02T18:18:19.148Z,26.30
2022-08-02T18:21:15.953Z,25.99
2022-08-02T18:24:07.486Z,25.81
2022-08-02T18:26:51.499Z,25.74
2022-08-02T18:29:38.301Z,25.68
2022-08-02T18:33:54.249Z,25.33
2022-08-02T18:35:29.541Z,25.08
2022-08-02T18:38:13.419Z,25.02
2022-08-02T18:40:59.708Z,25.09
2022-08-02T18:43:46.115Z,24.81
2022-08-02T18:46:30.387Z,24.54
2022-08-02T18:49:15.751Z,24.79
2022-08-02T18:52:00.843Z,23.74
2022-08-02T18:54:44.783Z,24.69
2022-08-02T18:58:16.652Z,24.92
2022-08-02T19:00:32.793Z,24.52
2022-08-02T19:03:16.759Z,24.64
2022-08-02T19:06:02.205Z,24.66
2022-08-02T19:08:47.364Z,24.54
2022-08-02T19:11:50.516Z,24.52
2022-08-02T19:14:35.140Z,24.39
2022-08-02T19:17:55.472Z,24.53
2022-08-02T19:20:23.033Z,24.13
2022-08-02T19:23:09.703Z,24.02
2022-08-02T19:25:58.700Z,24.27
2022-08-02T19:28:43.978Z,24.23
2022-08-02T19:31:34.767Z,24.31
2022-08-02T19:34:37.149Z,24.33
2022-08-02T19:37:21.183Z,24.37
2022-08-02T19:40:07.944Z,24.14
2022-08-02T19:44:21.048Z,24.33
2022-08-02T19:46:00.445Z,24.32
2022-08-02T19:48:46.115Z,23.53
2022-08-02T19:51:54.656Z,23.58
2022-08-02T19:54:54.651Z,23.62
2022-08-02T19:57:42.068Z,23.76
2022-08-02T20:00:26.085Z,24.02
2022-08-02T20:03:10.308Z,24.19
2022-08-02T20:05:59.993Z,24.09
2022-08-02T20:08:53.016Z,23.69
2022-08-02T20:11:40.914Z,23.97
2022-08-02T20:14:28.000Z,23.90
2022-08-02T20:17:12.500Z,23.89
2022-08-02T20:19:56.376Z,23.67
2022-08-02T20:22:54.338Z,23.79
2022-08-02T20:25:38.459Z,23.71
2022-08-02T20:28:29.320Z,23.57
2022-08-02T20:31:15.064Z,23.62
2022-08-02T20:33:59.149Z,23.65
2022-08-02T20:36:42.999Z,23.29
2022-08-02T20:39:43.035Z,23.53
2022-08-02T20:42:27.740Z,23.47
2022-08-02T20:45:14.062Z,23.34
2022-08-02T20:48:00.653Z,23.40
2022-08-02T20:50:52.226Z,23.35
2022-08-02T20:53:37.144Z,23.30
2022-08-02T20:56:39.302Z,23.15
2022-08-02T20:59:23.658Z,23.24
2022-08-02T21:02:08.688Z,23.25
2022-08-02T21:04:58.339Z,23.12
2022-08-02T21:07:42.286Z,22.99
2022-08-02T21:10:33.359Z,22.90
2022-08-02T21:13:18.909Z,22.95
2022-08-02T21:16:08.015Z,22.82
2022-08-02T21:18:59.795Z,22.75
2022-08-02T21:21:45.725Z,22.73
2022-08-02T21:24:29.931Z,22.51
2022-08-02T21:27:51.695Z,22.66
2022-08-02T21:30:18.325Z,22.71
2022-08-02T21:33:02.187Z,22.53
2022-08-02T21:35:47.799Z,22.75
2022-08-02T21:38:36.777Z,22.63
2022-08-02T21:41:20.666Z,22.85
2022-08-02T21:44:06.468Z,22.83
2022-08-02T21:46:52.521Z,22.86
2022-08-02T21:50:09.833Z,22.95
2022-08-02T21:52:40.859Z,23.06
2022-08-02T21:56:01.122Z,22.95
2022-08-02T21:58:40.304Z,23.01
2022-08-02T22:01:24.596Z,23.07
2022-08-02T22:04:08.851Z,23.09
2022-08-02T22:06:59.455Z,22.99
2022-08-02T22:09:45.435Z,23.32
2022-08-02T22:12:31.240Z,23.22
2022-08-02T22:15:15.038Z,23.17
2022-08-02T22:18:00.113Z,23.14
2022-08-02T22:20:44.328Z,23.21
2022-08-02T22:23:38.974Z,23.31
2022-08-02T22:26:34.366Z,23.23
2022-08-02T22:29:19.729Z,23.24
2022-08-02T22:32:03.916Z,22.98
2022-08-02T22:34:51.709Z,22.98
2022-08-02T22:38:16.412Z,23.03
2022-08-02T22:40:41.708Z,22.97
2022-08-02T22:43:25.549Z,22.77
2022-08-02T22:46:16.813Z,22.80
2022-08-02T22:49:01.373Z,22.59
2022-08-02T22:51:46.550Z,22.69
2022-08-02T22:54:30.446Z,22.68
2022-08-02T22:57:15.955Z,22.60
2022-08-02T23:00:00.846Z,22.64
2022-08-02T23:02:46.170Z,22.55
2022-08-02T23:05:30.324Z,22.59
2022-08-02T23:08:14.282Z,22.40
2022-08-02T23:10:58.109Z,22.49
2022-08-02T23:13:42.382Z,22.49
2022-08-02T23:16:43.488Z,22.50
2022-08-02T23:19:46.079Z,22.30
2022-08-02T23:22:32.224Z,22.22
2022-08-02T23:25:16.378Z,22.52
2022-08-02T23:28:00.177Z,22.42
2022-08-02T23:30:44.059Z,22.50
2022-08-02T23:33:27.913Z,22.57
2022-08-02T23:36:13.084Z,22.57
2022-08-02T23:38:56.997Z,22.42
2022-08-02T23:41:41.007Z,22.37
2022-08-02T23:44:25.994Z,22.17
2022-08-02T23:47:11.165Z,22.15
2022-08-02T23:49:55.158Z,22.24
2022-08-02T23:52:40.495Z,22.10
2022-08-02T23:55:24.442Z,21.96
2022-08-02T23:58:08.343Z,21.90
